sensor_id;sensor_type;location;lat;lon;timestamp;P1;durP1;ratioP1;P2;durP2;ratioP2
60851;SDS011;48553;50.766;2.900;2022-07-29T00:01:36;3.28;;;1.27;;
60851;SDS011;48553;50.766;2.900;2022-07-29T00:04:37;3.55;;;1.38;;
60851;SDS011;48553;50.766;2.900;2022-07-29T00:07:37;3.30;;;1.30;;
60851;SDS011;48553;50.766;2.900;2022-07-29T00:10:38;3.63;;;1.52;;
60851;SDS011;48553;50.766;2.900;2022-07-29T00:13:38;4.22;;;1.45;;
60851;SDS011;48553;50.766;2.900;2022-07-29T00:16:39;2.45;;;1.30;;
60851;SDS011;48553;50.766;2.900;2022-07-29T00:19:39;2.90;;;1.50;;
60851;SDS011;48553;50.766;2.900;2022-07-29T00:22:40;4.07;;;1.58;;
60851;SDS011;48553;50.766;2.900;2022-07-29T00:25:40;5.07;;;1.48;;
60851;SDS011;48553;50.766;2.900;2022-07-29T00:28:41;5.40;;;1.65;;
60851;SDS011;48553;50.766;2.900;2022-07-29T00:31:41;2.80;;;1.63;;
60851;SDS011;48553;50.766;2.900;2022-07-29T00:34:42;3.40;;;1.38;;
60851;SDS011;48553;50.766;2.900;2022-07-29T00:38:01;3.35;;;1.52;;
60851;SDS011;48553;50.766;2.900;2022-07-29T00:41:01;3.17;;;1.30;;
60851;SDS011;48553;50.766;2.900;2022-07-29T00:44:02;3.65;;;1.60;;
60851;SDS011;48553;50.766;2.900;2022-07-29T00:47:02;2.97;;;1.50;;
60851;SDS011;48553;50.766;2.900;2022-07-29T00:50:03;4.35;;;1.73;;
60851;SDS011;48553;50.766;2.900;2022-07-29T00:53:05;2.60;;;1.45;;
60851;SDS011;48553;50.766;2.900;2022-07-29T00:56:07;3.90;;;1.42;;
60851;SDS011;48553;50.766;2.900;2022-07-29T00:59:07;2.85;;;1.58;;
60851;SDS011;48553;50.766;2.900;2022-07-29T01:02:08;3.55;;;1.50;;
60851;SDS011;48553;50.766;2.900;2022-07-29T01:05:08;3.38;;;1.42;;
60851;SDS011;48553;50.766;2.900;2022-07-29T01:08:11;2.75;;;1.50;;
60851;SDS011;48553;50.766;2.900;2022-07-29T01:11:14;2.50;;;1.50;;
60851;SDS011;48553;50.766;2.900;2022-07-29T01:14:16;3.65;;;1.58;;
60851;SDS011;48553;50.766;2.900;2022-07-29T01:17:33;6.35;;;1.88;;
60851;SDS011;48553;50.766;2.900;2022-07-29T01:24:23;4.43;;;1.90;;
60851;SDS011;48553;50.766;2.900;2022-07-29T01:31:22;4.82;;;2.10;;
60851;SDS011;48553;50.766;2.900;2022-07-29T01:38:05;4.57;;;1.98;;
60851;SDS011;48553;50.766;2.900;2022-07-29T01:41:19;4.43;;;2.10;;
60851;SDS011;48553;50.766;2.900;2022-07-29T01:44:35;6.32;;;2.22;;
60851;SDS011;48553;50.766;2.900;2022-07-29T01:47:42;4.60;;;2.30;;
60851;SDS011;48553;50.766;2.900;2022-07-29T01:51:04;5.88;;;2.72;;
60851;SDS011;48553;50.766;2.900;2022-07-29T01:54:10;5.00;;;2.63;;
60851;SDS011;48553;50.766;2.900;2022-07-29T01:57:16;6.82;;;2.80;;
60851;SDS011;48553;50.766;2.900;2022-07-29T02:00:20;9.27;;;3.00;;
60851;SDS011;48553;50.766;2.900;2022-07-29T02:03:23;7.20;;;2.70;;
60851;SDS011;48553;50.766;2.900;2022-07-29T02:06:24;7.53;;;3.22;;
60851;SDS011;48553;50.766;2.900;2022-07-29T02:09:26;9.77;;;3.33;;
60851;SDS011;48553;50.766;2.900;2022-07-29T02:12:28;6.97;;;3.33;;
60851;SDS011;48553;50.766;2.900;2022-07-29T02:15:32;8.07;;;3.40;;
60851;SDS011;48553;50.766;2.900;2022-07-29T02:18:34;7.15;;;3.47;;
60851;SDS011;48553;50.766;2.900;2022-07-29T02:21:37;6.82;;;3.67;;
60851;SDS011;48553;50.766;2.900;2022-07-29T02:24:38;9.05;;;3.58;;
60851;SDS011;48553;50.766;2.900;2022-07-29T02:27:40;10.05;;;3.70;;
60851;SDS011;48553;50.766;2.900;2022-07-29T02:30:43;7.20;;;3.42;;
60851;SDS011;48553;50.766;2.900;2022-07-29T02:33:45;7.43;;;3.70;;
60851;SDS011;48553;50.766;2.900;2022-07-29T02:36:48;7.00;;;3.95;;
60851;SDS011;48553;50.766;2.900;2022-07-29T02:39:49;9.57;;;3.63;;
60851;SDS011;48553;50.766;2.900;2022-07-29T02:42:53;7.65;;;3.65;;
60851;SDS011;48553;50.766;2.900;2022-07-29T02:45:54;8.88;;;3.80;;
60851;SDS011;48553;50.766;2.900;2022-07-29T02:52:18;8.15;;;3.28;;
60851;SDS011;48553;50.766;2.900;2022-07-29T02:55:26;6.47;;;3.22;;
60851;SDS011;48553;50.766;2.900;2022-07-29T02:58:32;8.68;;;3.53;;
60851;SDS011;48553;50.766;2.900;2022-07-29T03:01:38;5.75;;;3.20;;
60851;SDS011;48553;50.766;2.900;2022-07-29T03:04:42;8.32;;;3.33;;
60851;SDS011;48553;50.766;2.900;2022-07-29T03:07:45;7.97;;;3.55;;
60851;SDS011;48553;50.766;2.900;2022-07-29T03:10:48;6.30;;;3.20;;
60851;SDS011;48553;50.766;2.900;2022-07-29T03:13:49;5.68;;;2.83;;
60851;SDS011;48553;50.766;2.900;2022-07-29T03:16:51;5.75;;;2.88;;
60851;SDS011;48553;50.766;2.900;2022-07-29T03:19:52;4.50;;;2.70;;
60851;SDS011;48553;50.766;2.900;2022-07-29T03:22:53;6.25;;;2.92;;
60851;SDS011;48553;50.766;2.900;2022-07-29T03:25:53;4.10;;;2.63;;
60851;SDS011;48553;50.766;2.900;2022-07-29T03:28:54;6.18;;;3.00;;
60851;SDS011;48553;50.766;2.900;2022-07-29T03:31:54;7.28;;;2.65;;
60851;SDS011;48553;50.766;2.900;2022-07-29T03:34:55;5.40;;;2.63;;
60851;SDS011;48553;50.766;2.900;2022-07-29T03:37:56;4.95;;;2.50;;
60851;SDS011;48553;50.766;2.900;2022-07-29T03:40:57;4.05;;;2.38;;
60851;SDS011;48553;50.766;2.900;2022-07-29T03:44:01;4.70;;;2.72;;
60851;SDS011;48553;50.766;2.900;2022-07-29T03:47:02;5.88;;;2.85;;
60851;SDS011;48553;50.766;2.900;2022-07-29T03:50:06;6.00;;;2.88;;
60851;SDS011;48553;50.766;2.900;2022-07-29T03:53:10;7.72;;;3.08;;
60851;SDS011;48553;50.766;2.900;2022-07-29T03:56:11;6.28;;;3.00;;
60851;SDS011;48553;50.766;2.900;2022-07-29T03:59:16;6.22;;;2.85;;
60851;SDS011;48553;50.766;2.900;2022-07-29T04:02:19;4.75;;;2.70;;
60851;SDS011;48553;50.766;2.900;2022-07-29T04:05:20;7.63;;;2.90;;
60851;SDS011;48553;50.766;2.900;2022-07-29T04:08:21;5.28;;;2.90;;
60851;SDS011;48553;50.766;2.900;2022-07-29T04:11:21;7.05;;;2.72;;
60851;SDS011;48553;50.766;2.900;2022-07-29T04:14:21;6.85;;;2.67;;
60851;SDS011;48553;50.766;2.900;2022-07-29T04:17:22;4.55;;;2.65;;
60851;SDS011;48553;50.766;2.900;2022-07-29T04:20:22;5.75;;;2.80;;
60851;SDS011;48553;50.766;2.900;2022-07-29T04:23:23;5.88;;;2.83;;
60851;SDS011;48553;50.766;2.900;2022-07-29T04:26:23;5.70;;;3.00;;
60851;SDS011;48553;50.766;2.900;2022-07-29T04:29:23;7.40;;;3.00;;
60851;SDS011;48553;50.766;2.900;2022-07-29T04:32:24;4.55;;;3.08;;
60851;SDS011;48553;50.766;2.900;2022-07-29T04:35:25;5.20;;;2.80;;
60851;SDS011;48553;50.766;2.900;2022-07-29T04:38:26;4.22;;;2.78;;
60851;SDS011;48553;50.766;2.900;2022-07-29T04:41:27;4.95;;;2.70;;
60851;SDS011;48553;50.766;2.900;2022-07-29T04:44:28;7.55;;;2.97;;
60851;SDS011;48553;50.766;2.900;2022-07-29T04:47:28;4.47;;;2.65;;
60851;SDS011;48553;50.766;2.900;2022-07-29T04:50:29;5.45;;;2.78;;
60851;SDS011;48553;50.766;2.900;2022-07-29T04:53:29;5.35;;;3.00;;
60851;SDS011;48553;50.766;2.900;2022-07-29T04:56:29;7.68;;;2.80;;
60851;SDS011;48553;50.766;2.900;2022-07-29T04:59:30;4.72;;;2.63;;
60851;SDS011;48553;50.766;2.900;2022-07-29T05:02:30;7.20;;;2.85;;
60851;SDS011;48553;50.766;2.900;2022-07-29T05:05:31;4.75;;;2.75;;
60851;SDS011;48553;50.766;2.900;2022-07-29T05:08:31;4.65;;;2.83;;
60851;SDS011;48553;50.766;2.900;2022-07-29T05:11:32;5.45;;;2.70;;
60851;SDS011;48553;50.766;2.900;2022-07-29T05:14:32;4.57;;;2.70;;
60851;SDS011;48553;50.766;2.900;2022-07-29T05:17:33;4.43;;;2.83;;
60851;SDS011;48553;50.766;2.900;2022-07-29T05:20:33;6.60;;;3.22;;
60851;SDS011;48553;50.766;2.900;2022-07-29T05:23:34;7.13;;;2.95;;
60851;SDS011;48553;50.766;2.900;2022-07-29T05:26:34;5.20;;;3.08;;
60851;SDS011;48553;50.766;2.900;2022-07-29T05:29:35;5.82;;;2.67;;
60851;SDS011;48553;50.766;2.900;2022-07-29T05:32:36;5.75;;;3.03;;
60851;SDS011;48553;50.766;2.900;2022-07-29T05:35:36;5.80;;;3.20;;
60851;SDS011;48553;50.766;2.900;2022-07-29T05:38:37;6.93;;;3.40;;
60851;SDS011;48553;50.766;2.900;2022-07-29T05:41:37;5.70;;;3.08;;
60851;SDS011;48553;50.766;2.900;2022-07-29T05:44:39;6.88;;;2.90;;
60851;SDS011;48553;50.766;2.900;2022-07-29T05:47:39;4.80;;;2.80;;
60851;SDS011;48553;50.766;2.900;2022-07-29T05:50:40;5.80;;;2.95;;
60851;SDS011;48553;50.766;2.900;2022-07-29T05:53:40;4.60;;;2.92;;
60851;SDS011;48553;50.766;2.900;2022-07-29T05:56:41;4.57;;;2.75;;
60851;SDS011;48553;50.766;2.900;2022-07-29T05:59:41;4.43;;;2.67;;
60851;SDS011;48553;50.766;2.900;2022-07-29T06:02:41;5.15;;;2.80;;
60851;SDS011;48553;50.766;2.900;2022-07-29T06:05:42;4.78;;;2.88;;
60851;SDS011;48553;50.766;2.900;2022-07-29T06:08:42;5.95;;;2.80;;
60851;SDS011;48553;50.766;2.900;2022-07-29T06:11:43;4.40;;;2.60;;
60851;SDS011;48553;50.766;2.900;2022-07-29T06:14:43;4.68;;;2.78;;
60851;SDS011;48553;50.766;2.900;2022-07-29T06:17:44;5.45;;;2.80;;
60851;SDS011;48553;50.766;2.900;2022-07-29T06:20:44;4.78;;;2.40;;
60851;SDS011;48553;50.766;2.900;2022-07-29T06:23:45;5.40;;;2.55;;
60851;SDS011;48553;50.766;2.900;2022-07-29T06:26:45;4.53;;;2.30;;
60851;SDS011;48553;50.766;2.900;2022-07-29T06:29:45;4.50;;;2.63;;
60851;SDS011;48553;50.766;2.900;2022-07-29T06:32:46;3.50;;;2.22;;
60851;SDS011;48553;50.766;2.900;2022-07-29T06:35:47;3.83;;;2.22;;
60851;SDS011;48553;50.766;2.900;2022-07-29T06:38:47;3.40;;;2.08;;
60851;SDS011;48553;50.766;2.900;2022-07-29T06:41:48;4.65;;;2.22;;
60851;SDS011;48553;50.766;2.900;2022-07-29T06:44:49;3.58;;;2.20;;
60851;SDS011;48553;50.766;2.900;2022-07-29T06:47:49;5.50;;;2.00;;
60851;SDS011;48553;50.766;2.900;2022-07-29T06:50:50;3.45;;;1.90;;
60851;SDS011;48553;50.766;2.900;2022-07-29T06:53:51;5.15;;;2.53;;
60851;SDS011;48553;50.766;2.900;2022-07-29T06:56:52;5.32;;;2.38;;
60851;SDS011;48553;50.766;2.900;2022-07-29T06:59:52;2.40;;;1.85;;
60851;SDS011;48553;50.766;2.900;2022-07-29T07:02:53;5.38;;;2.42;;
60851;SDS011;48553;50.766;2.900;2022-07-29T07:05:54;3.53;;;1.92;;
60851;SDS011;48553;50.766;2.900;2022-07-29T07:08:55;4.55;;;2.00;;
60851;SDS011;48553;50.766;2.900;2022-07-29T07:11:55;5.07;;;2.10;;
60851;SDS011;48553;50.766;2.900;2022-07-29T07:14:55;3.38;;;2.08;;
60851;SDS011;48553;50.766;2.900;2022-07-29T07:17:56;3.53;;;1.67;;
60851;SDS011;48553;50.766;2.900;2022-07-29T07:20:57;5.47;;;1.90;;
60851;SDS011;48553;50.766;2.900;2022-07-29T07:23:58;6.63;;;2.30;;
60851;SDS011;48553;50.766;2.900;2022-07-29T07:26:59;5.90;;;1.92;;
60851;SDS011;48553;50.766;2.900;2022-07-29T07:29:59;5.47;;;2.10;;
60851;SDS011;48553;50.766;2.900;2022-07-29T07:33:00;3.92;;;1.90;;
60851;SDS011;48553;50.766;2.900;2022-07-29T07:36:01;5.50;;;2.00;;
60851;SDS011;48553;50.766;2.900;2022-07-29T07:39:01;5.88;;;2.20;;
60851;SDS011;48553;50.766;2.900;2022-07-29T07:42:02;3.40;;;1.90;;
60851;SDS011;48553;50.766;2.900;2022-07-29T07:45:02;4.10;;;2.00;;
60851;SDS011;48553;50.766;2.900;2022-07-29T07:48:03;3.65;;;2.10;;
60851;SDS011;48553;50.766;2.900;2022-07-29T07:51:04;7.43;;;2.08;;
60851;SDS011;48553;50.766;2.900;2022-07-29T07:54:04;5.38;;;2.00;;
60851;SDS011;48553;50.766;2.900;2022-07-29T07:57:05;3.83;;;1.50;;
60851;SDS011;48553;50.766;2.900;2022-07-29T08:00:06;3.80;;;1.75;;
60851;SDS011;48553;50.766;2.900;2022-07-29T08:03:06;4.38;;;1.90;;
60851;SDS011;48553;50.766;2.900;2022-07-29T08:06:08;5.63;;;1.92;;
60851;SDS011;48553;50.766;2.900;2022-07-29T08:09:08;4.72;;;1.75;;
60851;SDS011;48553;50.766;2.900;2022-07-29T08:12:09;5.20;;;2.10;;
60851;SDS011;48553;50.766;2.900;2022-07-29T08:15:09;6.35;;;1.73;;
60851;SDS011;48553;50.766;2.900;2022-07-29T08:18:10;4.47;;;1.70;;
60851;SDS011;48553;50.766;2.900;2022-07-29T08:21:10;6.20;;;1.63;;
60851;SDS011;48553;50.766;2.900;2022-07-29T08:24:11;3.88;;;1.60;;
60851;SDS011;48553;50.766;2.900;2022-07-29T08:27:31;6.03;;;1.83;;
60851;SDS011;48553;50.766;2.900;2022-07-29T08:30:32;4.10;;;1.60;;
60851;SDS011;48553;50.766;2.900;2022-07-29T08:33:32;4.55;;;1.70;;
60851;SDS011;48553;50.766;2.900;2022-07-29T08:36:33;4.43;;;1.77;;
60851;SDS011;48553;50.766;2.900;2022-07-29T08:39:34;2.17;;;1.42;;
60851;SDS011;48553;50.766;2.900;2022-07-29T08:42:34;4.80;;;1.90;;
60851;SDS011;48553;50.766;2.900;2022-07-29T08:45:45;4.18;;;1.88;;
60851;SDS011;48553;50.766;2.900;2022-07-29T08:48:47;5.35;;;1.50;;
60851;SDS011;48553;50.766;2.900;2022-07-29T08:51:48;4.15;;;1.65;;
60851;SDS011;48553;50.766;2.900;2022-07-29T08:54:48;5.30;;;1.60;;
60851;SDS011;48553;50.766;2.900;2022-07-29T08:57:49;2.92;;;1.40;;
60851;SDS011;48553;50.766;2.900;2022-07-29T09:00:54;4.78;;;1.60;;
60851;SDS011;48553;50.766;2.900;2022-07-29T09:03:55;3.60;;;1.85;;
60851;SDS011;48553;50.766;2.900;2022-07-29T09:06:56;3.65;;;1.48;;
60851;SDS011;48553;50.766;2.900;2022-07-29T09:10:03;3.53;;;1.50;;
60851;SDS011;48553;50.766;2.900;2022-07-29T09:13:04;4.18;;;1.60;;
60851;SDS011;48553;50.766;2.900;2022-07-29T09:16:05;3.78;;;1.60;;
60851;SDS011;48553;50.766;2.900;2022-07-29T09:19:14;3.35;;;1.40;;
60851;SDS011;48553;50.766;2.900;2022-07-29T09:22:28;5.30;;;1.37;;
60851;SDS011;48553;50.766;2.900;2022-07-29T09:25:33;4.80;;;1.40;;
60851;SDS011;48553;50.766;2.900;2022-07-29T09:28:35;2.65;;;1.40;;
60851;SDS011;48553;50.766;2.900;2022-07-29T09:31:43;5.53;;;1.50;;
60851;SDS011;48553;50.766;2.900;2022-07-29T09:34:45;3.95;;;1.35;;
60851;SDS011;48553;50.766;2.900;2022-07-29T09:37:45;8.10;;;1.55;;
60851;SDS011;48553;50.766;2.900;2022-07-29T09:40:55;3.25;;;1.40;;
60851;SDS011;48553;50.766;2.900;2022-07-29T09:44:00;3.60;;;1.60;;
60851;SDS011;48553;50.766;2.900;2022-07-29T09:47:03;4.13;;;1.20;;
60851;SDS011;48553;50.766;2.900;2022-07-29T09:50:07;5.55;;;1.50;;
60851;SDS011;48553;50.766;2.900;2022-07-29T09:53:07;4.05;;;1.40;;
60851;SDS011;48553;50.766;2.900;2022-07-29T09:56:10;5.40;;;1.60;;
60851;SDS011;48553;50.766;2.900;2022-07-29T09:59:11;3.10;;;1.50;;
60851;SDS011;48553;50.766;2.900;2022-07-29T10:02:12;4.15;;;1.17;;
60851;SDS011;48553;50.766;2.900;2022-07-29T10:05:20;3.53;;;1.30;;
60851;SDS011;48553;50.766;2.900;2022-07-29T10:08:25;2.83;;;1.13;;
60851;SDS011;48553;50.766;2.900;2022-07-29T10:11:26;6.10;;;1.30;;
60851;SDS011;48553;50.766;2.900;2022-07-29T10:14:27;4.25;;;1.38;;
60851;SDS011;48553;50.766;2.900;2022-07-29T10:17:28;4.10;;;1.30;;
60851;SDS011;48553;50.766;2.900;2022-07-29T10:20:29;2.65;;;1.40;;
60851;SDS011;48553;50.766;2.900;2022-07-29T10:23:29;6.07;;;1.23;;
60851;SDS011;48553;50.766;2.900;2022-07-29T10:26:30;4.32;;;1.30;;
60851;SDS011;48553;50.766;2.900;2022-07-29T10:29:31;4.32;;;1.30;;
60851;SDS011;48553;50.766;2.900;2022-07-29T10:42:48;2.40;;;1.10;;
60851;SDS011;48553;50.766;2.900;2022-07-29T10:45:55;3.80;;;1.20;;
60851;SDS011;48553;50.766;2.900;2022-07-29T10:49:09;2.60;;;1.23;;
60851;SDS011;48553;50.766;2.900;2022-07-29T10:52:17;4.13;;;1.25;;
60851;SDS011;48553;50.766;2.900;2022-07-29T10:55:33;2.40;;;1.00;;
60851;SDS011;48553;50.766;2.900;2022-07-29T10:58:42;2.75;;;1.23;;
60851;SDS011;48553;50.766;2.900;2022-07-29T11:01:42;3.90;;;1.30;;
60851;SDS011;48553;50.766;2.900;2022-07-29T11:08:28;3.65;;;1.30;;
60851;SDS011;48553;50.766;2.900;2022-07-29T11:14:30;3.60;;;1.10;;
60851;SDS011;48553;50.766;2.900;2022-07-29T11:21:00;3.83;;;1.20;;
60851;SDS011;48553;50.766;2.900;2022-07-29T11:24:13;2.67;;;1.17;;
60851;SDS011;48553;50.766;2.900;2022-07-29T11:27:15;3.30;;;1.20;;
60851;SDS011;48553;50.766;2.900;2022-07-29T11:30:17;4.55;;;1.52;;
60851;SDS011;48553;50.766;2.900;2022-07-29T11:40:10;4.95;;;1.20;;
60851;SDS011;48553;50.766;2.900;2022-07-29T11:43:12;3.35;;;0.93;;
60851;SDS011;48553;50.766;2.900;2022-07-29T11:46:49;2.38;;;1.08;;
60851;SDS011;48553;50.766;2.900;2022-07-29T11:49:51;2.42;;;1.10;;
60851;SDS011;48553;50.766;2.900;2022-07-29T11:52:52;1.92;;;1.10;;
60851;SDS011;48553;50.766;2.900;2022-07-29T11:55:54;3.60;;;1.30;;
60851;SDS011;48553;50.766;2.900;2022-07-29T11:59:05;2.53;;;1.10;;
60851;SDS011;48553;50.766;2.900;2022-07-29T12:02:09;3.33;;;1.10;;
60851;SDS011;48553;50.766;2.900;2022-07-29T12:05:10;2.65;;;1.00;;
60851;SDS011;48553;50.766;2.900;2022-07-29T12:08:12;2.03;;;1.13;;
60851;SDS011;48553;50.766;2.900;2022-07-29T12:11:19;3.13;;;1.20;;
60851;SDS011;48553;50.766;2.900;2022-07-29T12:14:27;3.00;;;1.15;;
60851;SDS011;48553;50.766;2.900;2022-07-29T12:17:30;5.43;;;1.23;;
60851;SDS011;48553;50.766;2.900;2022-07-29T12:20:32;4.60;;;1.38;;
60851;SDS011;48553;50.766;2.900;2022-07-29T12:23:34;4.05;;;1.27;;
60851;SDS011;48553;50.766;2.900;2022-07-29T12:26:35;4.38;;;1.27;;
60851;SDS011;48553;50.766;2.900;2022-07-29T12:29:36;4.18;;;1.17;;
60851;SDS011;48553;50.766;2.900;2022-07-29T12:35:38;4.00;;;1.10;;
60851;SDS011;48553;50.766;2.900;2022-07-29T12:38:40;5.15;;;1.27;;
60851;SDS011;48553;50.766;2.900;2022-07-29T12:41:40;3.33;;;1.20;;
60851;SDS011;48553;50.766;2.900;2022-07-29T12:44:44;2.33;;;1.23;;
60851;SDS011;48553;50.766;2.900;2022-07-29T12:47:52;4.60;;;1.20;;
60851;SDS011;48553;50.766;2.900;2022-07-29T12:54:02;2.85;;;1.13;;
60851;SDS011;48553;50.766;2.900;2022-07-29T12:57:08;3.15;;;1.30;;
60851;SDS011;48553;50.766;2.900;2022-07-29T13:00:09;5.32;;;1.35;;
60851;SDS011;48553;50.766;2.900;2022-07-29T13:03:12;4.45;;;1.30;;
60851;SDS011;48553;50.766;2.900;2022-07-29T13:09:42;2.65;;;1.30;;
60851;SDS011;48553;50.766;2.900;2022-07-29T13:16:14;4.47;;;1.40;;
60851;SDS011;48553;50.766;2.900;2022-07-29T13:19:15;4.97;;;1.25;;
60851;SDS011;48553;50.766;2.900;2022-07-29T13:22:16;3.15;;;1.25;;
60851;SDS011;48553;50.766;2.900;2022-07-29T13:25:31;4.07;;;1.30;;
60851;SDS011;48553;50.766;2.900;2022-07-29T13:28:32;3.67;;;1.10;;
60851;SDS011;48553;50.766;2.900;2022-07-29T13:31:32;2.38;;;1.27;;
60851;SDS011;48553;50.766;2.900;2022-07-29T13:34:33;3.38;;;1.13;;
60851;SDS011;48553;50.766;2.900;2022-07-29T13:37:33;3.42;;;1.20;;
60851;SDS011;48553;50.766;2.900;2022-07-29T13:40:38;3.17;;;1.40;;
60851;SDS011;48553;50.766;2.900;2022-07-29T13:43:38;4.00;;;1.40;;
60851;SDS011;48553;50.766;2.900;2022-07-29T13:46:38;2.35;;;1.30;;
60851;SDS011;48553;50.766;2.900;2022-07-29T13:49:39;4.55;;;1.42;;
60851;SDS011;48553;50.766;2.900;2022-07-29T13:52:39;4.55;;;1.20;;
60851;SDS011;48553;50.766;2.900;2022-07-29T13:55:40;2.97;;;1.20;;
60851;SDS011;48553;50.766;2.900;2022-07-29T13:58:40;3.05;;;1.40;;
60851;SDS011;48553;50.766;2.900;2022-07-29T14:01:41;4.13;;;1.38;;
60851;SDS011;48553;50.766;2.900;2022-07-29T14:04:42;2.95;;;1.35;;
60851;SDS011;48553;50.766;2.900;2022-07-29T14:07:42;3.22;;;1.38;;
60851;SDS011;48553;50.766;2.900;2022-07-29T14:10:43;3.65;;;1.30;;
60851;SDS011;48553;50.766;2.900;2022-07-29T14:13:43;5.65;;;1.30;;
60851;SDS011;48553;50.766;2.900;2022-07-29T14:16:43;3.20;;;1.40;;
60851;SDS011;48553;50.766;2.900;2022-07-29T14:19:44;2.30;;;1.10;;
60851;SDS011;48553;50.766;2.900;2022-07-29T14:22:44;5.07;;;1.50;;
60851;SDS011;48553;50.766;2.900;2022-07-29T14:25:45;3.75;;;1.40;;
60851;SDS011;48553;50.766;2.900;2022-07-29T14:28:46;3.58;;;1.50;;
60851;SDS011;48553;50.766;2.900;2022-07-29T14:31:46;2.28;;;1.25;;
60851;SDS011;48553;50.766;2.900;2022-07-29T14:34:46;2.25;;;1.20;;
60851;SDS011;48553;50.766;2.900;2022-07-29T14:37:47;3.40;;;1.50;;
60851;SDS011;48553;50.766;2.900;2022-07-29T14:40:47;4.57;;;1.58;;
60851;SDS011;48553;50.766;2.900;2022-07-29T14:43:48;3.33;;;1.40;;
60851;SDS011;48553;50.766;2.900;2022-07-29T14:46:48;2.80;;;1.23;;
60851;SDS011;48553;50.766;2.900;2022-07-29T14:49:49;2.55;;;1.23;;
60851;SDS011;48553;50.766;2.900;2022-07-29T14:52:50;2.60;;;1.20;;
60851;SDS011;48553;50.766;2.900;2022-07-29T14:55:50;3.17;;;1.40;;
60851;SDS011;48553;50.766;2.900;2022-07-29T14:58:50;4.10;;;1.30;;
60851;SDS011;48553;50.766;2.900;2022-07-29T15:01:51;3.53;;;1.33;;
60851;SDS011;48553;50.766;2.900;2022-07-29T15:04:52;4.35;;;1.30;;
60851;SDS011;48553;50.766;2.900;2022-07-29T15:07:52;5.53;;;1.40;;
60851;SDS011;48553;50.766;2.900;2022-07-29T15:10:53;3.40;;;1.27;;
60851;SDS011;48553;50.766;2.900;2022-07-29T15:13:53;2.17;;;1.20;;
60851;SDS011;48553;50.766;2.900;2022-07-29T15:16:54;2.95;;;1.30;;
60851;SDS011;48553;50.766;2.900;2022-07-29T15:19:54;5.10;;;1.40;;
60851;SDS011;48553;50.766;2.900;2022-07-29T15:22:55;3.75;;;1.30;;
60851;SDS011;48553;50.766;2.900;2022-07-29T15:25:56;2.75;;;1.20;;
60851;SDS011;48553;50.766;2.900;2022-07-29T15:28:56;3.63;;;1.35;;
60851;SDS011;48553;50.766;2.900;2022-07-29T15:31:56;3.90;;;1.40;;
60851;SDS011;48553;50.766;2.900;2022-07-29T15:34:57;3.60;;;1.40;;
60851;SDS011;48553;50.766;2.900;2022-07-29T15:37:57;2.55;;;1.25;;
60851;SDS011;48553;50.766;2.900;2022-07-29T15:40:58;4.07;;;1.45;;
60851;SDS011;48553;50.766;2.900;2022-07-29T15:43:58;3.20;;;1.30;;
60851;SDS011;48553;50.766;2.900;2022-07-29T15:46:58;4.03;;;1.30;;
60851;SDS011;48553;50.766;2.900;2022-07-29T15:50:06;2.92;;;1.20;;
60851;SDS011;48553;50.766;2.900;2022-07-29T15:53:11;4.03;;;1.33;;
60851;SDS011;48553;50.766;2.900;2022-07-29T15:56:12;4.90;;;1.50;;
60851;SDS011;48553;50.766;2.900;2022-07-29T15:59:12;4.22;;;1.20;;
60851;SDS011;48553;50.766;2.900;2022-07-29T16:02:12;5.68;;;1.70;;
60851;SDS011;48553;50.766;2.900;2022-07-29T16:05:13;3.40;;;1.40;;
60851;SDS011;48553;50.766;2.900;2022-07-29T16:08:13;5.20;;;1.30;;
60851;SDS011;48553;50.766;2.900;2022-07-29T16:11:14;4.32;;;1.50;;
60851;SDS011;48553;50.766;2.900;2022-07-29T16:14:15;4.32;;;1.40;;
60851;SDS011;48553;50.766;2.900;2022-07-29T16:17:17;2.72;;;1.30;;
60851;SDS011;48553;50.766;2.900;2022-07-29T16:20:18;4.65;;;1.40;;
60851;SDS011;48553;50.766;2.900;2022-07-29T16:23:19;3.30;;;1.20;;
60851;SDS011;48553;50.766;2.900;2022-07-29T16:26:20;3.53;;;1.30;;
60851;SDS011;48553;50.766;2.900;2022-07-29T16:29:20;3.17;;;1.10;;
60851;SDS011;48553;50.766;2.900;2022-07-29T16:32:21;4.90;;;1.20;;
60851;SDS011;48553;50.766;2.900;2022-07-29T16:35:21;4.22;;;1.40;;
60851;SDS011;48553;50.766;2.900;2022-07-29T16:38:21;3.63;;;1.08;;
60851;SDS011;48553;50.766;2.900;2022-07-29T16:41:22;5.50;;;1.58;;
60851;SDS011;48553;50.766;2.900;2022-07-29T16:44:22;4.30;;;1.27;;
60851;SDS011;48553;50.766;2.900;2022-07-29T16:47:23;3.30;;;1.20;;
60851;SDS011;48553;50.766;2.900;2022-07-29T16:50:23;3.80;;;1.40;;
60851;SDS011;48553;50.766;2.900;2022-07-29T16:53:24;3.35;;;1.30;;
60851;SDS011;48553;50.766;2.900;2022-07-29T16:56:25;3.47;;;1.35;;
60851;SDS011;48553;50.766;2.900;2022-07-29T16:59:29;3.42;;;1.27;;
60851;SDS011;48553;50.766;2.900;2022-07-29T17:02:29;4.30;;;1.33;;
60851;SDS011;48553;50.766;2.900;2022-07-29T17:05:30;5.93;;;1.40;;
60851;SDS011;48553;50.766;2.900;2022-07-29T17:08:31;3.08;;;1.20;;
60851;SDS011;48553;50.766;2.900;2022-07-29T17:11:31;4.35;;;1.45;;
60851;SDS011;48553;50.766;2.900;2022-07-29T17:14:32;3.58;;;1.40;;
60851;SDS011;48553;50.766;2.900;2022-07-29T17:17:32;2.08;;;1.20;;
60851;SDS011;48553;50.766;2.900;2022-07-29T17:20:33;3.75;;;1.17;;
60851;SDS011;48553;50.766;2.900;2022-07-29T17:23:35;2.63;;;1.25;;
60851;SDS011;48553;50.766;2.900;2022-07-29T17:26:35;2.20;;;1.10;;
60851;SDS011;48553;50.766;2.900;2022-07-29T17:29:36;3.20;;;1.10;;
60851;SDS011;48553;50.766;2.900;2022-07-29T17:32:38;2.60;;;1.10;;
60851;SDS011;48553;50.766;2.900;2022-07-29T17:35:38;2.58;;;1.00;;
60851;SDS011;48553;50.766;2.900;2022-07-29T17:39:05;2.65;;;0.98;;
60851;SDS011;48553;50.766;2.900;2022-07-29T17:42:10;3.03;;;1.20;;
60851;SDS011;48553;50.766;2.900;2022-07-29T17:45:12;1.92;;;0.98;;
60851;SDS011;48553;50.766;2.900;2022-07-29T17:48:12;2.13;;;0.88;;
60851;SDS011;48553;50.766;2.900;2022-07-29T17:51:13;1.65;;;0.77;;
60851;SDS011;48553;50.766;2.900;2022-07-29T17:54:14;2.97;;;1.00;;
60851;SDS011;48553;50.766;2.900;2022-07-29T17:57:14;2.58;;;1.00;;
60851;SDS011;48553;50.766;2.900;2022-07-29T18:00:15;1.85;;;1.20;;
60851;SDS011;48553;50.766;2.900;2022-07-29T18:03:15;3.33;;;1.40;;
60851;SDS011;48553;50.766;2.900;2022-07-29T18:06:16;3.10;;;1.30;;
60851;SDS011;48553;50.766;2.900;2022-07-29T18:09:16;3.25;;;1.10;;
60851;SDS011;48553;50.766;2.900;2022-07-29T18:12:17;3.13;;;1.00;;
60851;SDS011;48553;50.766;2.900;2022-07-29T18:15:17;2.85;;;1.00;;
60851;SDS011;48553;50.766;2.900;2022-07-29T18:18:18;3.00;;;1.20;;
60851;SDS011;48553;50.766;2.900;2022-07-29T18:21:18;2.78;;;1.02;;
60851;SDS011;48553;50.766;2.900;2022-07-29T18:24:19;3.35;;;1.00;;
60851;SDS011;48553;50.766;2.900;2022-07-29T18:27:19;2.92;;;0.98;;
60851;SDS011;48553;50.766;2.900;2022-07-29T18:30:20;3.25;;;1.20;;
60851;SDS011;48553;50.766;2.900;2022-07-29T18:33:20;3.15;;;1.10;;
60851;SDS011;48553;50.766;2.900;2022-07-29T18:36:21;3.03;;;1.10;;
60851;SDS011;48553;50.766;2.900;2022-07-29T18:39:21;2.55;;;1.10;;
60851;SDS011;48553;50.766;2.900;2022-07-29T18:42:22;6.85;;;1.20;;
60851;SDS011;48553;50.766;2.900;2022-07-29T18:45:22;2.97;;;1.25;;
60851;SDS011;48553;50.766;2.900;2022-07-29T18:48:23;3.85;;;1.52;;
60851;SDS011;48553;50.766;2.900;2022-07-29T18:51:23;3.67;;;1.38;;
60851;SDS011;48553;50.766;2.900;2022-07-29T18:54:24;5.15;;;1.35;;
60851;SDS011;48553;50.766;2.900;2022-07-29T18:57:24;3.03;;;1.40;;
60851;SDS011;48553;50.766;2.900;2022-07-29T19:00:25;3.30;;;1.20;;
60851;SDS011;48553;50.766;2.900;2022-07-29T19:03:26;4.18;;;1.17;;
60851;SDS011;48553;50.766;2.900;2022-07-29T19:06:26;3.47;;;1.27;;
60851;SDS011;48553;50.766;2.900;2022-07-29T19:09:27;6.10;;;1.50;;
60851;SDS011;48553;50.766;2.900;2022-07-29T19:12:28;4.60;;;1.13;;